createdAt,value
2023-04-01T00:01:40.972Z,9.43
2023-04-01T00:04:44.887Z,4.57
2023-04-01T00:07:48.884Z,6.75
2023-04-01T00:10:52.119Z,4.75
2023-04-01T00:13:56.149Z,3.97
2023-04-01T00:16:59.783Z,3.42
2023-04-01T00:20:04.803Z,5.07
2023-04-01T00:23:08.451Z,5.55
2023-04-01T00:26:13.704Z,3.15
2023-04-01T00:29:18.156Z,3.85
2023-04-01T00:32:21.892Z,3.90
2023-04-01T00:35:25.893Z,4.25
2023-04-01T00:38:29.180Z,5.22
2023-04-01T00:41:33.160Z,3.97
2023-04-01T00:44:38.658Z,4.63
2023-04-01T00:47:42.836Z,7.53
2023-04-01T00:51:11.868Z,4.38
2023-04-01T00:54:20.921Z,5.70
2023-04-01T00:57:34.481Z,3.38
2023-04-01T01:00:39.018Z,3.83
2023-04-01T01:03:42.238Z,4.70
2023-04-01T01:07:12.111Z,3.28
2023-04-01T01:10:15.610Z,3.55
2023-04-01T01:13:30.372Z,3.65
2023-04-01T01:16:43.841Z,5.53
2023-04-01T01:20:18.977Z,6.93
2023-04-01T01:23:57.952Z,6.65
2023-04-01T01:27:15.723Z,3.78
2023-04-01T01:30:40.078Z,4.13
2023-04-01T01:33:57.789Z,3.80
2023-04-01T01:40:13.479Z,5.50
2023-04-01T01:43:22.490Z,2.78
2023-04-01T01:46:30.468Z,4.60
2023-04-01T01:49:37.185Z,3.67
2023-04-01T01:52:40.518Z,3.67
2023-04-01T01:55:50.419Z,3.40
2023-04-01T01:59:10.483Z,5.28
2023-04-01T02:02:16.524Z,4.28
2023-04-01T02:05:25.544Z,4.53
2023-04-01T02:08:45.684Z,6.50
2023-04-01T02:12:03.104Z,4.07
2023-04-01T02:15:14.996Z,3.40
2023-04-01T02:18:21.871Z,6.20
2023-04-01T02:21:29.660Z,5.00
2023-04-01T02:24:34.415Z,4.53
2023-04-01T02:27:38.600Z,5.68
2023-04-01T02:30:43.875Z,5.47
2023-04-01T02:33:49.039Z,3.78
2023-04-01T02:36:53.643Z,7.97
2023-04-01T02:40:02.437Z,3.45
2023-04-01T02:43:06.563Z,4.05
2023-04-01T02:46:09.984Z,2.72
2023-04-01T02:49:14.068Z,3.45
2023-04-01T02:52:17.071Z,2.25
2023-04-01T02:55:20.861Z,3.38
2023-04-01T02:58:24.637Z,3.78
2023-04-01T03:01:28.272Z,3.78
2023-04-01T03:04:31.366Z,4.05
2023-04-01T03:07:35.791Z,4.13
2023-04-01T03:10:39.320Z,6.15
2023-04-01T03:13:43.691Z,5.35
2023-04-01T03:16:48.406Z,3.00
2023-04-01T03:19:53.249Z,5.05
2023-04-01T03:22:56.694Z,2.90
2023-04-01T03:26:00.874Z,3.63
2023-04-01T03:29:04.637Z,4.57
2023-04-01T03:32:08.461Z,3.15
2023-04-01T03:35:12.639Z,3.03
2023-04-01T03:38:17.356Z,4.35
2023-04-01T03:41:21.279Z,4.43
2023-04-01T03:44:25.576Z,3.53
2023-04-01T03:47:30.671Z,4.55
2023-04-01T03:50:36.699Z,2.33
2023-04-01T03:53:40.292Z,2.45
2023-04-01T03:56:44.463Z,1.40
2023-04-01T03:59:48.434Z,2.13
2023-04-01T04:02:52.960Z,3.05
2023-04-01T04:06:02.166Z,2.25
2023-04-01T04:09:07.720Z,3.63
2023-04-01T04:12:11.659Z,3.70
2023-04-01T04:15:17.150Z,1.75
2023-04-01T04:18:21.144Z,5.93
2023-04-01T04:21:24.930Z,2.03
2023-04-01T04:24:29.454Z,2.63
2023-04-01T04:27:42.209Z,3.15
2023-04-01T04:30:48.624Z,3.13
2023-04-01T04:33:53.042Z,4.72
2023-04-01T04:37:00.709Z,3.65
2023-04-01T04:40:09.159Z,8.25
2023-04-01T04:43:15.260Z,3.75
2023-04-01T04:46:20.018Z,2.97
2023-04-01T04:49:26.998Z,2.90
2023-04-01T04:52:30.825Z,4.47
2023-04-01T04:55:34.710Z,3.72
2023-04-01T04:58:54.628Z,2.58
2023-04-01T05:02:09.874Z,2.78
2023-04-01T05:05:13.946Z,0.90
2023-04-01T05:08:17.453Z,3.72
2023-04-01T05:11:22.003Z,1.90
2023-04-01T05:14:27.798Z,4.35
2023-04-01T05:17:39.936Z,2.55
2023-04-01T05:20:52.260Z,1.83
2023-04-01T05:23:56.609Z,5.78
2023-04-01T05:27:02.191Z,1.77
2023-04-01T05:30:07.425Z,3.55
2023-04-01T05:36:39.452Z,5.72
2023-04-01T05:39:43.355Z,4.57
2023-04-01T05:42:47.236Z,3.17
2023-04-01T05:45:52.151Z,5.00
2023-04-01T05:49:22.862Z,2.15
2023-04-01T05:52:30.523Z,3.85
2023-04-01T05:55:34.001Z,2.25
2023-04-01T05:58:39.323Z,1.42
2023-04-01T06:01:44.963Z,3.20
2023-04-01T06:04:49.579Z,2.72
2023-04-01T06:08:07.773Z,4.75
2023-04-01T06:11:35.254Z,5.32
2023-04-01T06:18:22.921Z,3.17
2023-04-01T06:25:25.630Z,1.83
2023-04-01T06:28:49.140Z,1.80
2023-04-01T06:32:09.630Z,3.33
2023-04-01T06:35:21.657Z,0.50
2023-04-01T06:39:02.286Z,2.88
2023-04-01T06:42:26.541Z,4.03
2023-04-01T06:45:43.559Z,2.80
2023-04-01T06:49:24.917Z,16.40
2023-04-01T06:53:02.338Z,1.92
2023-04-01T06:56:29.123Z,1.15
2023-04-01T06:59:41.416Z,2.47
2023-04-01T07:03:01.566Z,4.50
2023-04-01T07:06:28.284Z,3.63
2023-04-01T07:09:43.481Z,2.95
2023-04-01T07:13:26.456Z,6.18
2023-04-01T07:16:46.662Z,2.38
2023-04-01T07:20:15.146Z,3.35
2023-04-01T07:23:25.633Z,3.63
2023-04-01T07:27:02.018Z,4.38
2023-04-01T07:30:21.457Z,3.20
2023-04-01T07:33:41.581Z,3.60
2023-04-01T07:36:56.389Z,4.65
2023-04-01T07:40:15.229Z,1.75
2023-04-01T07:43:24.934Z,2.70
2023-04-01T07:46:48.017Z,2.65
2023-04-01T07:50:11.637Z,3.28
2023-04-01T07:53:35.213Z,3.97
2023-04-01T07:56:53.882Z,2.58
2023-04-01T08:00:20.500Z,2.75
2023-04-01T08:03:55.332Z,4.30
2023-04-01T08:07:25.514Z,4.25
2023-04-01T08:11:30.220Z,3.97
2023-04-01T08:15:12.715Z,5.50
2023-04-01T08:19:20.490Z,4.20
2023-04-01T08:22:30.843Z,3.20
2023-04-01T08:25:42.736Z,3.08
2023-04-01T08:28:54.458Z,2.47
2023-04-01T08:32:02.792Z,1.75
2023-04-01T08:35:34.284Z,16.63
2023-04-01T08:38:42.328Z,7.97
2023-04-01T08:42:23.699Z,2.55
2023-04-01T08:45:40.406Z,3.03
2023-04-01T08:48:59.363Z,2.75
2023-04-01T08:52:36.819Z,2.80
2023-04-01T08:55:47.619Z,4.65
2023-04-01T08:58:58.719Z,5.38
2023-04-01T09:02:32.937Z,3.17
2023-04-01T09:06:06.483Z,4.40
2023-04-01T09:09:42.254Z,3.28
2023-04-01T09:12:47.332Z,2.88
2023-04-01T09:16:21.027Z,9.40
2023-04-01T09:19:25.114Z,5.28
2023-04-01T09:23:11.226Z,7.97
2023-04-01T09:26:38.571Z,7.57
2023-04-01T09:29:50.793Z,8.38
2023-04-01T09:33:06.942Z,9.38
2023-04-01T09:36:31.823Z,7.88
2023-04-01T09:39:43.454Z,4.55
2023-04-01T09:43:01.762Z,7.10
2023-04-01T09:46:26.489Z,4.40
2023-04-01T09:49:44.344Z,6.03
2023-04-01T09:53:09.902Z,6.50
2023-04-01T09:56:26.243Z,7.82
2023-04-01T10:00:14.162Z,10.25
2023-04-01T10:03:36.421Z,7.28
2023-04-01T10:07:19.540Z,10.02
2023-04-01T10:10:55.482Z,12.50
2023-04-01T10:14:17.762Z,14.30
2023-04-01T10:17:44.616Z,9.82
2023-04-01T10:21:16.909Z,8.70
2023-04-01T10:24:41.720Z,10.90
2023-04-01T10:28:11.147Z,16.75
2023-04-01T10:31:39.234Z,8.40
2023-04-01T10:35:21.834Z,20.33
2023-04-01T10:39:16.362Z,13.52
2023-04-01T10:42:48.722Z,16.85
2023-04-01T10:46:32.949Z,10.00
2023-04-01T10:49:54.984Z,10.88
2023-04-01T10:53:23.899Z,11.57
2023-04-01T10:57:17.330Z,8.85
2023-04-01T11:01:05.064Z,12.45
2023-04-01T11:05:11.797Z,13.82
2023-04-01T11:08:45.878Z,15.00
2023-04-01T11:12:22.925Z,17.60
2023-04-01T11:15:48.376Z,17.40
2023-04-01T11:19:38.998Z,22.80
2023-04-01T11:23:13.553Z,26.08
2023-04-01T11:27:12.721Z,28.83
2023-04-01T11:30:42.376Z,26.42
2023-04-01T11:34:23.616Z,39.17
2023-04-01T11:37:52.514Z,30.65
2023-04-01T11:41:53.266Z,30.60
2023-04-01T11:45:37.892Z,31.20
2023-04-01T11:49:16.429Z,35.50
2023-04-01T11:52:41.821Z,27.38
2023-04-01T11:55:50.546Z,40.80
2023-04-01T11:59:25.303Z,29.15
2023-04-01T12:02:55.357Z,30.25
2023-04-01T12:06:37.429Z,17.60
2023-04-01T12:09:59.225Z,12.00
2023-04-01T12:13:37.717Z,9.82
2023-04-01T12:16:57.956Z,24.17
2023-04-01T12:20:43.595Z,20.00
2023-04-01T12:24:24.580Z,14.43
2023-04-01T12:28:07.185Z,26.08
2023-04-01T12:31:21.509Z,24.65
2023-04-01T12:34:38.514Z,26.50
2023-04-01T12:38:11.231Z,18.23
2023-04-01T12:41:24.399Z,18.08
2023-04-01T12:45:02.192Z,12.65
2023-04-01T12:48:25.332Z,8.35
2023-04-01T12:51:45.807Z,9.32
2023-04-01T12:55:08.193Z,4.90
2023-04-01T12:58:51.666Z,10.73
2023-04-01T13:02:39.439Z,9.43
2023-04-01T13:05:58.816Z,13.48
2023-04-01T13:09:21.939Z,30.58
2023-04-01T13:12:55.649Z,20.98
2023-04-01T13:16:16.036Z,8.45
2023-04-01T13:19:23.485Z,10.50
2023-04-01T13:25:47.194Z,23.48
2023-04-01T13:29:19.045Z,24.33
2023-04-01T13:32:44.104Z,26.60
2023-04-01T13:35:56.316Z,13.50
2023-04-01T13:39:19.299Z,13.25
2023-04-01T13:42:36.057Z,5.45
2023-04-01T13:45:49.627Z,8.27
2023-04-01T13:49:01.381Z,15.77
2023-04-01T13:52:28.804Z,7.63
2023-04-01T13:55:51.469Z,21.67
2023-04-01T13:58:55.905Z,23.83
2023-04-01T14:02:21.937Z,17.02
2023-04-01T14:05:49.251Z,20.35
2023-04-01T14:09:11.772Z,15.38
2023-04-01T14:12:38.041Z,12.70
2023-04-01T14:16:16.551Z,14.98
2023-04-01T14:19:32.511Z,8.85
2023-04-01T14:23:08.704Z,10.57
2023-04-01T14:26:30.990Z,16.93
2023-04-01T14:29:34.844Z,11.85
2023-04-01T14:33:05.132Z,10.18
2023-04-01T14:36:31.372Z,10.57
2023-04-01T14:40:26.990Z,11.07
2023-04-01T14:43:42.852Z,9.80
2023-04-01T14:47:05.215Z,13.05
2023-04-01T14:50:32.332Z,9.98
2023-04-01T14:53:44.344Z,9.60
2023-04-01T14:57:12.995Z,8.98
2023-04-01T15:00:21.091Z,9.63
2023-04-01T15:07:00.209Z,4.97
2023-04-01T15:10:21.298Z,8.65
2023-04-01T15:13:24.856Z,9.48
2023-04-01T15:16:43.206Z,12.02
2023-04-01T15:20:11.912Z,15.13
2023-04-01T15:23:59.477Z,6.28
2023-04-01T15:27:30.184Z,10.60
2023-04-01T15:30:55.080Z,14.07
2023-04-01T15:34:19.375Z,12.02
2023-04-01T15:38:01.079Z,9.02
2023-04-01T15:41:37.652Z,6.35
2023-04-01T15:44:48.002Z,10.88
2023-04-01T15:48:16.547Z,14.60
2023-04-01T15:52:04.924Z,12.23
2023-04-01T15:55:11.959Z,13.05
2023-04-01T15:58:34.787Z,11.73
2023-04-01T16:01:56.740Z,13.43
2023-04-01T16:05:22.480Z,14.05
2023-04-01T16:08:44.287Z,7.00
2023-04-01T16:12:14.488Z,17.83
2023-04-01T16:15:28.854Z,13.70
2023-04-01T16:18:44.982Z,16.30
2023-04-01T16:21:48.954Z,16.73
2023-04-01T16:24:53.178Z,14.77
2023-04-01T16:28:33.961Z,13.95
2023-04-01T16:31:52.825Z,17.35
2023-04-01T16:35:12.872Z,15.75
2023-04-01T16:38:32.179Z,14.07
2023-04-01T16:42:01.853Z,9.60
2023-04-01T16:45:09.552Z,9.25
2023-04-01T16:48:19.342Z,12.68
2023-04-01T16:51:25.951Z,14.70
2023-04-01T16:54:52.755Z,14.75
2023-04-01T16:58:02.522Z,16.90
2023-04-01T17:01:24.812Z,16.13
2023-04-01T17:04:40.785Z,12.35
2023-04-01T17:07:54.345Z,18.77
2023-04-01T17:11:35.603Z,6.72
2023-04-01T17:15:04.203Z,13.77
2023-04-01T17:18:15.899Z,14.43
2023-04-01T17:21:45.922Z,13.82
2023-04-01T17:25:11.332Z,15.60
2023-04-01T17:28:59.502Z,13.70
2023-04-01T17:32:12.672Z,14.98
2023-04-01T17:35:40.088Z,18.13
2023-04-01T17:42:15.986Z,15.85
2023-04-01T17:45:49.555Z,15.10
2023-04-01T17:49:16.598Z,14.35
2023-04-01T17:52:30.515Z,11.80
2023-04-01T17:55:57.657Z,13.85
2023-04-01T17:59:13.225Z,13.95
2023-04-01T18:02:54.464Z,13.35
2023-04-01T18:06:16.942Z,16.17
2023-04-01T18:09:35.283Z,12.05
2023-04-01T18:13:17.999Z,18.33
2023-04-01T18:17:00.111Z,15.57
2023-04-01T18:20:30.820Z,14.85
2023-04-01T18:24:01.706Z,16.33
2023-04-01T18:27:17.115Z,16.88
2023-04-01T18:30:31.796Z,12.60
2023-04-01T18:34:12.856Z,11.52
2023-04-01T18:37:25.111Z,22.60
2023-04-01T18:40:45.674Z,23.70
2023-04-01T18:44:02.988Z,30.65
2023-04-01T18:47:26.595Z,11.95
2023-04-01T18:50:39.801Z,14.85
2023-04-01T18:53:56.034Z,15.80
2023-04-01T18:57:14.501Z,11.68
2023-04-01T19:00:34.510Z,14.85
2023-04-01T19:03:59.987Z,16.42
2023-04-01T19:07:23.171Z,16.35
2023-04-01T19:10:30.016Z,15.07
2023-04-01T19:13:47.102Z,26.73
2023-04-01T19:17:07.046Z,10.20
2023-04-01T19:20:36.389Z,8.73
2023-04-01T19:23:55.549Z,17.88
2023-04-01T19:27:20.465Z,26.02
2023-04-01T19:30:47.894Z,28.48
2023-04-01T19:34:20.554Z,35.15
2023-04-01T19:37:47.770Z,33.83
2023-04-01T19:41:04.358Z,47.05
2023-04-01T19:44:47.404Z,58.77
2023-04-01T19:48:14.030Z,62.17
2023-04-01T19:51:44.083Z,70.28
2023-04-01T19:55:13.019Z,78.65
2023-04-01T19:58:32.705Z,83.97
2023-04-01T20:01:44.633Z,89.43
2023-04-01T20:05:02.022Z,91.78
2023-04-01T20:08:31.765Z,116.43
2023-04-01T20:11:38.622Z,106.80
2023-04-01T20:14:48.704Z,98.95
2023-04-01T20:17:56.519Z,106.13
2023-04-01T20:21:07.300Z,17.02
2023-04-01T20:24:26.252Z,56.95
2023-04-01T20:27:37.562Z,81.30
2023-04-01T20:31:03.008Z,67.82
2023-04-01T20:34:32.963Z,76.22
2023-04-01T20:38:08.172Z,91.28
2023-04-01T20:41:25.669Z,88.75
2023-04-01T20:44:41.667Z,82.82
2023-04-01T20:47:59.654Z,64.38
2023-04-01T20:51:32.602Z,98.97
2023-04-01T20:54:44.897Z,94.00
2023-04-01T20:58:04.120Z,97.72
2023-04-01T21:01:20.839Z,102.10
2023-04-01T21:04:47.353Z,96.45
2023-04-01T21:08:22.039Z,106.38
2023-04-01T21:11:35.143Z,113.28
2023-04-01T21:14:51.254Z,100.90
2023-04-01T21:18:38.422Z,109.93
2023-04-01T21:22:11.813Z,114.50
2023-04-01T21:25:40.655Z,134.20
2023-04-01T21:29:23.210Z,143.75
2023-04-01T21:32:33.954Z,151.85
2023-04-01T21:42:56.289Z,99.38
2023-04-01T21:46:18.859Z,100.65
2023-04-01T21:49:33.813Z,85.30
2023-04-01T21:53:01.702Z,62.83
2023-04-01T21:56:28.001Z,12.10
2023-04-01T21:59:50.660Z,3.88
2023-04-01T22:03:32.870Z,5.30
2023-04-01T22:06:43.050Z,3.25
2023-04-01T22:10:13.267Z,4.82
2023-04-01T22:13:28.531Z,3.45
2023-04-01T22:16:48.452Z,5.55
2023-04-01T22:20:12.152Z,4.43
2023-04-01T22:23:16.522Z,7.07
2023-04-01T22:26:29.559Z,12.57
2023-04-01T22:29:57.121Z,5.00
2023-04-01T22:33:20.177Z,5.82
2023-04-01T22:36:38.943Z,6.88
2023-04-01T22:40:22.905Z,6.45
2023-04-01T22:43:29.760Z,6.35
2023-04-01T22:46:52.591Z,10.02
2023-04-01T22:50:26.653Z,3.03
2023-04-01T22:54:01.596Z,3.63
2023-04-01T22:57:10.616Z,4.50
2023-04-01T23:00:33.325Z,5.43
2023-04-01T23:03:42.338Z,2.53
2023-04-01T23:06:51.619Z,4.70
2023-04-01T23:09:56.964Z,3.60
2023-04-01T23:13:02.042Z,3.92
2023-04-01T23:16:07.400Z,4.53
2023-04-01T23:19:51.313Z,8.70
2023-04-01T23:23:09.908Z,5.75
2023-04-01T23:26:24.984Z,5.78
2023-04-01T23:29:29.556Z,4.60
2023-04-01T23:32:33.016Z,6.03
2023-04-01T23:36:09.842Z,3.60
2023-04-01T23:39:24.234Z,3.45
2023-04-01T23:42:34.646Z,3.90
2023-04-01T23:45:38.465Z,3.63
2023-04-01T23:48:46.417Z,4.93
2023-04-01T23:52:01.644Z,5.75
2023-04-01T23:55:15.432Z,3.55
2023-04-01T23:58:42.438Z,3.03
